createdAt,value
2024-01-15T00:01:52.797Z,71.66
2024-01-15T00:04:20.343Z,71.57
2024-01-15T00:06:49.228Z,72.13
2024-01-15T00:09:16.868Z,71.41
2024-01-15T00:11:44.545Z,72.44
2024-01-15T00:14:13.082Z,71.26
2024-01-15T00:16:42.221Z,72.25
2024-01-15T00:19:09.758Z,72.56
2024-01-15T00:21:37.279Z,72.45
2024-01-15T00:24:06.373Z,72.13
2024-01-15T00:26:33.804Z,72.12
2024-01-15T00:29:01.275Z,71.53
2024-01-15T00:31:30.922Z,72.70
2024-01-15T00:33:58.628Z,72.63
2024-01-15T00:36:26.162Z,73.41
2024-01-15T00:38:53.814Z,73.27
2024-01-15T00:41:22.548Z,72.74
2024-01-15T00:43:50.207Z,73.29
2024-01-15T00:46:18.328Z,73.71
2024-01-15T00:48:46.302Z,73.65
2024-01-15T00:51:13.885Z,73.43
2024-01-15T00:53:42.677Z,73.96
2024-01-15T00:56:10.210Z,72.39
2024-01-15T00:58:38.978Z,72.70
2024-01-15T01:01:06.459Z,73.16
2024-01-15T01:03:34.257Z,73.50
2024-01-15T01:06:01.762Z,73.21
2024-01-15T01:08:29.171Z,72.68
2024-01-15T01:10:58.029Z,72.14
2024-01-15T01:13:25.440Z,72.41
2024-01-15T01:15:54.257Z,72.46
2024-01-15T01:18:21.910Z,72.11
2024-01-15T01:20:49.381Z,73.06
2024-01-15T01:23:17.236Z,73.21
2024-01-15T01:25:44.657Z,72.77
2024-01-15T01:28:12.144Z,73.08
2024-01-15T01:30:39.696Z,73.61
2024-01-15T01:33:08.707Z,72.83
2024-01-15T01:35:36.190Z,72.70
2024-01-15T01:38:03.740Z,73.15
2024-01-15T01:40:31.390Z,72.72
2024-01-15T01:42:58.826Z,72.46
2024-01-15T01:45:26.261Z,73.07
2024-01-15T01:47:53.876Z,71.82
2024-01-15T01:50:23.347Z,72.30
2024-01-15T01:52:51.427Z,72.71
2024-01-15T01:55:20.255Z,72.98
2024-01-15T01:57:47.909Z,72.86
2024-01-15T02:00:16.079Z,72.80
2024-01-15T02:02:43.544Z,71.96
2024-01-15T02:05:11.780Z,71.00
2024-01-15T02:07:40.588Z,72.21
2024-01-15T02:10:08.734Z,71.59
2024-01-15T02:12:36.184Z,71.42
2024-01-15T02:15:04.002Z,71.64
2024-01-15T02:17:31.443Z,70.66
2024-01-15T02:19:58.896Z,71.34
2024-01-15T02:22:26.328Z,71.41
2024-01-15T02:24:55.543Z,71.31
2024-01-15T02:27:23.325Z,71.86
2024-01-15T02:29:51.049Z,71.56
2024-01-15T02:32:18.450Z,71.86
2024-01-15T02:34:46.102Z,71.15
2024-01-15T02:37:13.642Z,71.57
2024-01-15T02:39:41.097Z,72.63
2024-01-15T02:42:09.930Z,71.95
2024-01-15T02:44:37.345Z,72.27
2024-01-15T02:47:04.995Z,72.42
2024-01-15T02:49:33.643Z,71.86
2024-01-15T02:52:01.396Z,71.99
2024-01-15T02:54:28.863Z,72.40
2024-01-15T02:56:56.259Z,71.51
2024-01-15T02:59:24.999Z,71.26
2024-01-15T03:01:52.486Z,71.30
2024-01-15T03:04:20.050Z,71.26
2024-01-15T03:06:47.651Z,71.61
2024-01-15T03:09:15.296Z,71.94
2024-01-15T03:11:43.019Z,71.54
2024-01-15T03:14:10.429Z,71.60
2024-01-15T03:16:39.186Z,71.14
2024-01-15T03:19:06.675Z,71.05
2024-01-15T03:21:34.168Z,71.30
2024-01-15T03:24:01.584Z,71.29
2024-01-15T03:26:29.020Z,70.76
2024-01-15T03:28:56.475Z,70.28
2024-01-15T03:31:24.044Z,71.31
2024-01-15T03:33:52.970Z,70.86
2024-01-15T03:36:20.772Z,71.05
2024-01-15T03:38:48.295Z,71.11
2024-01-15T03:41:16.031Z,71.13
2024-01-15T03:43:43.547Z,71.32
2024-01-15T03:46:10.948Z,70.36
2024-01-15T03:48:38.526Z,71.40
2024-01-15T03:51:07.684Z,71.48
2024-01-15T03:53:35.105Z,71.66
2024-01-15T03:56:02.527Z,71.41
2024-01-15T03:58:29.959Z,71.92
2024-01-15T04:00:57.513Z,72.36
2024-01-15T04:03:25.412Z,72.73
2024-01-15T04:05:52.968Z,71.54
2024-01-15T04:08:21.732Z,71.28
2024-01-15T04:10:49.190Z,73.01
2024-01-15T04:13:16.712Z,73.39
2024-01-15T04:15:44.162Z,74.08
2024-01-15T04:18:11.811Z,73.41
2024-01-15T04:20:39.580Z,73.99
2024-01-15T04:23:07.059Z,74.46
2024-01-15T04:25:35.878Z,73.18
2024-01-15T04:28:03.349Z,73.62
2024-01-15T04:30:30.819Z,73.61
2024-01-15T04:32:58.368Z,73.48
2024-01-15T04:35:25.927Z,73.84
2024-01-15T04:37:54.067Z,72.86
2024-01-15T04:40:21.504Z,72.79
2024-01-15T04:42:50.472Z,72.68
2024-01-15T04:45:19.641Z,72.69
2024-01-15T04:47:47.154Z,72.81
2024-01-15T04:50:14.749Z,72.24
2024-01-15T04:52:42.231Z,72.14
2024-01-15T04:55:10.060Z,71.78
2024-01-15T04:57:37.529Z,71.56
2024-01-15T05:00:07.613Z,70.09
2024-01-15T05:02:35.405Z,70.55
2024-01-15T05:05:02.845Z,71.95
2024-01-15T05:07:30.229Z,71.43
2024-01-15T05:09:57.718Z,71.81
2024-01-15T05:12:25.154Z,71.66
2024-01-15T05:14:52.592Z,71.19
2024-01-15T05:17:21.338Z,70.47
2024-01-15T05:19:48.945Z,71.24
2024-01-15T05:22:16.538Z,71.60
2024-01-15T05:24:43.980Z,71.57
2024-01-15T05:27:11.427Z,71.55
2024-01-15T05:29:38.851Z,71.85
2024-01-15T05:32:05.504Z,71.31
2024-01-15T05:34:34.542Z,71.48
2024-01-15T05:37:02.291Z,71.56
2024-01-15T05:39:29.760Z,71.41
2024-01-15T05:41:57.191Z,71.63
2024-01-15T05:44:24.614Z,71.00
2024-01-15T05:46:52.028Z,70.94
2024-01-15T05:49:19.608Z,70.93
2024-01-15T05:51:48.450Z,69.73
2024-01-15T05:54:15.962Z,69.76
2024-01-15T05:56:43.418Z,70.03
2024-01-15T05:59:14.103Z,71.06
2024-01-15T06:01:43.325Z,70.42
2024-01-15T06:04:10.985Z,70.57
2024-01-15T06:06:38.587Z,70.43
2024-01-15T06:09:07.465Z,69.89
2024-01-15T06:11:35.054Z,69.85
2024-01-15T06:14:02.823Z,70.18
2024-01-15T06:16:30.830Z,70.09
2024-01-15T06:18:58.576Z,69.07
2024-01-15T06:21:26.517Z,68.95
2024-01-15T06:23:54.119Z,68.40
2024-01-15T06:26:23.152Z,68.56
2024-01-15T06:28:50.760Z,67.72
2024-01-15T06:31:18.382Z,68.86
2024-01-15T06:33:48.378Z,68.37
2024-01-15T06:36:17.264Z,68.58
2024-01-15T06:38:45.896Z,67.71
2024-01-15T06:41:13.374Z,66.75
2024-01-15T06:43:42.142Z,68.61
2024-01-15T06:46:10.128Z,68.00
2024-01-15T06:48:38.199Z,68.34
2024-01-15T06:51:06.597Z,66.51
2024-01-15T06:53:34.109Z,67.42
2024-01-15T06:56:01.520Z,67.99
2024-01-15T06:58:28.940Z,67.36
2024-01-15T07:00:57.897Z,67.12
2024-01-15T07:03:25.652Z,67.01
2024-01-15T07:05:53.420Z,67.91
2024-01-15T07:08:20.953Z,66.22
2024-01-15T07:10:48.397Z,67.04
2024-01-15T07:13:15.872Z,66.19
2024-01-15T07:15:43.357Z,66.67
2024-01-15T07:18:12.249Z,67.47
2024-01-15T07:20:39.762Z,67.15
2024-01-15T07:23:08.005Z,66.85
2024-01-15T07:25:35.667Z,67.02
2024-01-15T07:28:04.889Z,66.68
2024-01-15T07:30:32.584Z,66.37
2024-01-15T07:33:00.322Z,66.89
2024-01-15T07:35:29.204Z,67.79
2024-01-15T07:37:56.721Z,68.34
2024-01-15T07:40:24.950Z,68.49
2024-01-15T07:42:53.300Z,67.93
2024-01-15T07:45:20.919Z,68.17
2024-01-15T07:47:48.747Z,69.05
2024-01-15T07:50:16.261Z,67.51
2024-01-15T07:52:45.000Z,66.52
2024-01-15T07:55:12.512Z,67.88
2024-01-15T07:57:40.192Z,67.57
2024-01-15T08:00:10.264Z,67.67
2024-01-15T08:02:38.231Z,67.53
2024-01-15T08:05:06.629Z,67.32
2024-01-15T08:07:34.250Z,67.17
2024-01-15T08:10:05.191Z,66.57
2024-01-15T08:12:33.001Z,66.48
2024-01-15T08:15:00.529Z,65.36
2024-01-15T08:17:29.562Z,65.56
2024-01-15T08:19:57.751Z,64.73
2024-01-15T08:22:25.374Z,65.67
2024-01-15T08:24:53.075Z,65.10
2024-01-15T08:27:22.069Z,65.74
2024-01-15T08:29:49.509Z,64.77
2024-01-15T08:32:16.992Z,66.11
2024-01-15T08:34:44.498Z,66.63
2024-01-15T08:37:11.976Z,65.43
2024-01-15T08:39:39.638Z,64.70
2024-01-15T08:42:07.504Z,64.94
2024-01-15T08:44:36.259Z,65.87
2024-01-15T08:47:04.026Z,65.89
2024-01-15T08:49:31.565Z,64.95
2024-01-15T08:51:59.504Z,64.48
2024-01-15T08:54:26.997Z,65.55
2024-01-15T08:56:54.391Z,63.76
2024-01-15T08:59:25.713Z,64.69
2024-01-15T09:01:55.199Z,63.45
2024-01-15T09:04:22.862Z,64.09
2024-01-15T09:06:50.451Z,65.25
2024-01-15T09:09:18.047Z,64.32
2024-01-15T09:11:45.478Z,64.37
2024-01-15T09:14:13.297Z,63.94
2024-01-15T09:16:41.753Z,63.22
2024-01-15T09:19:10.643Z,62.71
2024-01-15T09:21:41.222Z,62.59
2024-01-15T09:24:08.848Z,62.17
2024-01-15T09:26:36.275Z,63.10
2024-01-15T09:29:03.980Z,62.54
2024-01-15T09:31:33.249Z,60.55
2024-01-15T09:34:01.423Z,60.30
2024-01-15T09:36:31.209Z,61.54
2024-01-15T09:38:58.727Z,61.82
2024-01-15T09:41:26.549Z,60.49
2024-01-15T09:43:54.177Z,60.84
2024-01-15T09:46:21.946Z,61.02
2024-01-15T09:48:50.365Z,61.06
2024-01-15T09:51:19.233Z,61.30
2024-01-15T09:53:48.933Z,61.32
2024-01-15T09:56:17.094Z,62.24
2024-01-15T09:58:45.103Z,59.59
2024-01-15T10:01:13.873Z,61.55
2024-01-15T10:03:41.951Z,60.87
2024-01-15T10:06:11.359Z,59.75
2024-01-15T10:08:41.188Z,59.69
2024-01-15T10:11:09.904Z,59.08
2024-01-15T10:13:40.625Z,59.59
2024-01-15T10:16:10.182Z,59.73
2024-01-15T10:18:38.108Z,59.20
2024-01-15T10:21:07.160Z,58.92
2024-01-15T10:23:34.630Z,58.57
2024-01-15T10:26:02.187Z,58.92
2024-01-15T10:28:32.637Z,58.33
2024-01-15T10:31:01.696Z,57.48
2024-01-15T10:33:29.799Z,59.08
2024-01-15T10:35:59.223Z,57.15
2024-01-15T10:38:27.063Z,58.01
2024-01-15T10:40:54.993Z,56.68
2024-01-15T10:43:25.120Z,56.25
2024-01-15T10:45:55.478Z,57.64
2024-01-15T10:48:23.014Z,57.94
2024-01-15T10:50:51.168Z,57.93
2024-01-15T10:53:20.179Z,58.31
2024-01-15T10:55:49.497Z,58.09
2024-01-15T10:58:18.293Z,57.75
2024-01-15T11:00:46.310Z,58.16
2024-01-15T11:03:15.634Z,58.81
2024-01-15T11:05:45.358Z,58.61
2024-01-15T11:08:13.256Z,57.95
2024-01-15T11:10:42.728Z,58.80
2024-01-15T11:13:16.350Z,58.27
2024-01-15T11:16:03.540Z,58.39
2024-01-15T11:18:37.901Z,58.54
2024-01-15T11:21:26.077Z,58.67
2024-01-15T11:23:57.345Z,58.82
2024-01-15T11:26:38.667Z,59.35
2024-01-15T11:29:07.904Z,59.01
2024-01-15T11:32:02.886Z,59.69
2024-01-15T11:34:55.308Z,59.27
2024-01-15T11:37:24.553Z,59.49
2024-01-15T11:39:53.849Z,59.89
2024-01-15T11:42:23.399Z,60.05
2024-01-15T11:44:52.152Z,58.71
2024-01-15T11:47:52.960Z,57.80
2024-01-15T11:50:23.657Z,57.48
2024-01-15T11:53:03.510Z,56.63
2024-01-15T11:55:36.897Z,57.28
2024-01-15T11:58:08.699Z,57.40
2024-01-15T12:00:36.246Z,57.82
2024-01-15T12:03:03.746Z,58.52
2024-01-15T12:05:32.573Z,58.37
2024-01-15T12:08:00.041Z,57.20
2024-01-15T12:10:27.743Z,58.55
2024-01-15T12:13:00.677Z,58.31
2024-01-15T12:15:30.514Z,58.79
2024-01-15T12:17:59.652Z,59.98
2024-01-15T12:20:27.730Z,59.53
2024-01-15T12:23:01.675Z,59.21
2024-01-15T12:25:32.156Z,59.33
2024-01-15T12:28:00.621Z,60.73
2024-01-15T12:30:28.663Z,61.54
2024-01-15T12:32:56.660Z,61.64
2024-01-15T12:35:27.200Z,61.08
2024-01-15T12:37:56.420Z,60.51
2024-01-15T12:40:24.919Z,61.61
2024-01-15T12:42:52.393Z,61.70
2024-01-15T12:45:20.149Z,61.22
2024-01-15T12:47:49.133Z,61.69
2024-01-15T12:50:20.031Z,62.89
2024-01-15T12:52:48.675Z,61.65
2024-01-15T12:55:17.772Z,63.82
2024-01-15T12:57:46.323Z,65.64
2024-01-15T13:00:15.996Z,64.87
2024-01-15T13:02:44.827Z,65.78
2024-01-15T13:05:14.853Z,65.97
2024-01-15T13:07:43.766Z,66.51
2024-01-15T13:10:13.389Z,65.79
2024-01-15T13:12:43.213Z,67.91
2024-01-15T13:15:13.963Z,66.74
2024-01-15T13:17:42.894Z,67.71
2024-01-15T13:20:12.340Z,67.59
2024-01-15T13:22:41.123Z,67.58
2024-01-15T13:25:10.164Z,67.88
2024-01-15T13:27:39.333Z,68.87
2024-01-15T13:30:10.705Z,69.35
2024-01-15T13:32:38.260Z,68.96
2024-01-15T13:35:10.732Z,68.40
2024-01-15T13:37:39.046Z,69.41
2024-01-15T13:40:09.143Z,71.06
2024-01-15T13:42:39.240Z,70.58
2024-01-15T13:45:08.542Z,70.74
2024-01-15T13:47:39.234Z,72.23
2024-01-15T13:50:07.478Z,72.92
2024-01-15T13:52:35.036Z,75.28
2024-01-15T13:55:02.807Z,74.70
2024-01-15T13:57:30.366Z,75.79
2024-01-15T13:59:58.073Z,76.45
2024-01-15T14:02:26.599Z,75.95
2024-01-15T14:04:56.128Z,78.05
2024-01-15T14:07:23.550Z,79.42
2024-01-15T14:09:51.124Z,83.61
2024-01-15T14:12:18.778Z,82.90
2024-01-15T14:14:49.077Z,81.45
2024-01-15T14:17:16.481Z,80.00
2024-01-15T14:19:44.321Z,78.47
2024-01-15T14:22:13.336Z,78.93
2024-01-15T14:24:40.805Z,80.25
2024-01-15T14:27:08.359Z,81.24
2024-01-15T14:29:36.826Z,81.04
2024-01-15T14:32:05.032Z,82.13
2024-01-15T14:34:32.632Z,80.39
2024-01-15T14:37:00.289Z,80.54
2024-01-15T14:39:29.258Z,81.00
2024-01-15T14:41:58.066Z,79.48
2024-01-15T14:44:25.497Z,80.91
2024-01-15T14:46:53.051Z,80.99
2024-01-15T14:49:20.526Z,83.47
2024-01-15T14:51:48.178Z,83.30
2024-01-15T14:54:16.117Z,82.38
2024-01-15T14:56:44.935Z,85.20
2024-01-15T14:59:12.433Z,86.57
2024-01-15T15:01:41.241Z,88.22
2024-01-15T15:04:09.453Z,92.74
2024-01-15T15:06:37.572Z,88.97
2024-01-15T15:09:09.963Z,88.20
2024-01-15T15:11:37.714Z,91.19
2024-01-15T15:14:06.471Z,89.21
2024-01-15T15:16:33.972Z,100.00
2024-01-15T15:19:01.497Z,95.30
2024-01-15T15:21:29.786Z,92.22
2024-01-15T15:23:57.410Z,92.15
2024-01-15T15:26:25.160Z,89.29
2024-01-15T15:28:52.696Z,86.96
2024-01-15T15:31:21.490Z,86.82
2024-01-15T15:33:49.088Z,87.08
2024-01-15T15:36:16.630Z,88.46
2024-01-15T15:38:44.097Z,87.35
2024-01-15T15:41:11.557Z,87.04
2024-01-15T15:43:38.968Z,86.82
2024-01-15T15:46:06.791Z,85.11
2024-01-15T15:48:35.636Z,84.84
2024-01-15T15:51:04.198Z,84.87
2024-01-15T15:53:31.917Z,85.77
2024-01-15T15:55:59.781Z,86.89
2024-01-15T15:58:27.287Z,86.90
2024-01-15T16:00:55.158Z,85.16
2024-01-15T16:03:22.818Z,85.44
2024-01-15T16:05:53.357Z,83.00
2024-01-15T16:08:22.037Z,82.90
2024-01-15T16:10:52.426Z,82.13
2024-01-15T16:13:21.276Z,82.36
2024-01-15T16:15:49.339Z,81.80
2024-01-15T16:23:20.133Z,82.11
2024-01-15T16:23:35.030Z,80.95
2024-01-15T16:24:12.362Z,81.28
2024-01-15T16:26:42.838Z,81.34
2024-01-15T16:29:10.822Z,80.86
2024-01-15T16:31:39.289Z,81.58
2024-01-15T16:34:07.553Z,81.97
2024-01-15T16:36:37.632Z,81.17
2024-01-15T16:39:05.233Z,81.19
2024-01-15T16:41:33.337Z,82.11
2024-01-15T16:44:00.930Z,83.92
2024-01-15T16:46:29.142Z,82.54
2024-01-15T16:48:57.315Z,80.96
2024-01-15T16:51:24.836Z,82.07
2024-01-15T16:53:53.819Z,81.46
2024-01-15T16:56:21.608Z,81.09
2024-01-15T16:58:49.165Z,81.24
2024-01-15T17:01:16.709Z,81.51
2024-01-15T17:03:44.343Z,89.30
2024-01-15T17:06:11.812Z,89.09
2024-01-15T17:08:39.292Z,90.71
2024-01-15T17:11:08.738Z,90.63
2024-01-15T17:13:36.187Z,90.41
2024-01-15T17:16:05.013Z,89.77
2024-01-15T17:18:32.718Z,87.46
2024-01-15T17:21:00.327Z,86.82
2024-01-15T17:23:27.807Z,85.58
2024-01-15T17:25:55.302Z,83.66
2024-01-15T17:28:25.423Z,85.15
2024-01-15T17:30:53.075Z,83.73
2024-01-15T17:33:21.105Z,81.34
2024-01-15T17:35:53.000Z,80.91
2024-01-15T17:38:20.486Z,79.79
2024-01-15T17:40:48.716Z,79.63
2024-01-15T17:43:17.005Z,79.14
2024-01-15T17:45:45.786Z,78.18
2024-01-15T17:48:13.585Z,79.10
2024-01-15T17:50:41.147Z,79.54
2024-01-15T17:53:10.423Z,78.65
2024-01-15T17:55:38.010Z,78.21
2024-01-15T17:58:06.973Z,78.83
2024-01-15T18:00:35.084Z,78.63
2024-01-15T18:03:03.924Z,80.54
2024-01-15T18:05:31.495Z,83.51
2024-01-15T18:07:59.178Z,84.12
2024-01-15T18:10:27.759Z,84.53
2024-01-15T18:12:55.254Z,85.00
2024-01-15T18:15:22.748Z,86.00
2024-01-15T18:17:50.338Z,85.65
2024-01-15T18:20:19.666Z,85.03
2024-01-15T18:22:50.806Z,84.24
2024-01-15T18:25:19.788Z,83.41
2024-01-15T18:27:47.273Z,83.63
2024-01-15T18:30:15.377Z,85.15
2024-01-15T18:32:43.076Z,84.98
2024-01-15T18:35:10.940Z,83.99
2024-01-15T18:37:39.762Z,82.91
2024-01-15T18:40:08.449Z,84.06
2024-01-15T18:42:35.893Z,82.85
2024-01-15T18:45:03.331Z,85.37
2024-01-15T18:47:32.133Z,85.08
2024-01-15T18:49:59.666Z,85.18
2024-01-15T18:52:27.915Z,86.17
2024-01-15T18:54:57.213Z,88.43
2024-01-15T18:57:24.637Z,87.61
2024-01-15T18:59:52.316Z,89.12
2024-01-15T19:02:19.779Z,90.76
2024-01-15T19:04:47.352Z,93.62
2024-01-15T19:07:14.822Z,93.26
2024-01-15T19:09:42.963Z,100.00
2024-01-15T19:12:11.675Z,100.00
2024-01-15T19:14:40.080Z,100.00
2024-01-15T19:17:07.638Z,100.00
2024-01-15T19:19:37.888Z,100.00
2024-01-15T19:22:05.826Z,100.00
2024-01-15T19:24:33.964Z,100.00
2024-01-15T19:27:01.363Z,92.18
2024-01-15T19:29:30.181Z,91.47
2024-01-15T19:31:59.519Z,87.17
2024-01-15T19:34:27.177Z,91.59
2024-01-15T19:36:55.180Z,93.29
2024-01-15T19:39:24.183Z,94.38
2024-01-15T19:41:51.639Z,92.85
2024-01-15T19:44:19.098Z,93.99
2024-01-15T19:46:47.877Z,93.77
2024-01-15T19:49:15.304Z,94.19
2024-01-15T19:51:42.753Z,94.41
2024-01-15T19:54:10.163Z,94.80
2024-01-15T19:56:38.904Z,94.27
2024-01-15T19:59:07.984Z,92.53
2024-01-15T20:01:35.951Z,91.50
2024-01-15T20:04:04.866Z,88.94
2024-01-15T20:06:32.481Z,89.78
2024-01-15T20:09:00.045Z,88.39
2024-01-15T20:11:27.680Z,86.45
2024-01-15T20:13:55.163Z,86.57
2024-01-15T20:16:23.092Z,86.70
2024-01-15T20:18:50.743Z,85.81
2024-01-15T20:21:19.576Z,84.37
2024-01-15T20:23:55.137Z,83.37
2024-01-15T20:26:27.003Z,84.11
2024-01-15T20:28:55.508Z,83.69
2024-01-15T20:31:23.046Z,85.12
2024-01-15T20:33:52.616Z,85.19
2024-01-15T20:36:21.441Z,85.22
2024-01-15T20:38:48.952Z,84.68
2024-01-15T20:41:17.258Z,86.40
2024-01-15T20:43:45.922Z,87.95
2024-01-15T20:46:13.436Z,87.64
2024-01-15T20:48:40.934Z,87.99
2024-01-15T20:51:08.409Z,87.31
2024-01-15T20:53:38.002Z,88.05
2024-01-15T20:56:06.533Z,87.23
2024-01-15T20:58:34.053Z,87.98
2024-01-15T21:01:01.516Z,88.96
2024-01-15T21:03:29.393Z,89.92
2024-01-15T21:05:57.189Z,93.27
2024-01-15T21:08:24.963Z,96.42
2024-01-15T21:10:53.823Z,99.77
2024-01-15T21:13:21.375Z,99.61
2024-01-15T21:15:48.786Z,100.00
2024-01-15T21:18:17.764Z,100.00
2024-01-15T21:20:45.694Z,99.86
2024-01-15T21:23:13.257Z,100.00
2024-01-15T21:25:40.863Z,98.54
2024-01-15T21:28:09.564Z,95.85
2024-01-15T21:30:37.180Z,93.90
2024-01-15T21:33:06.003Z,92.76
2024-01-15T21:35:35.014Z,92.34
2024-01-15T21:38:02.625Z,91.39
2024-01-15T21:40:30.288Z,90.66
2024-01-15T21:42:58.009Z,88.18
2024-01-15T21:45:27.839Z,87.64
2024-01-15T21:47:55.467Z,87.61
2024-01-15T21:50:23.876Z,87.64
2024-01-15T21:52:51.341Z,87.41
2024-01-15T21:55:19.130Z,87.45
2024-01-15T21:57:46.575Z,88.94
2024-01-15T22:00:16.624Z,88.73
2024-01-15T22:02:46.704Z,88.52
2024-01-15T22:05:14.491Z,87.85
2024-01-15T22:07:43.892Z,87.38
2024-01-15T22:10:12.520Z,88.65
2024-01-15T22:12:40.000Z,88.33
2024-01-15T22:15:09.277Z,88.84
2024-01-15T22:17:36.873Z,89.39
2024-01-15T22:20:08.920Z,90.58
2024-01-15T22:22:36.432Z,91.70
2024-01-15T22:25:04.526Z,94.56
2024-01-15T22:27:32.036Z,94.64
2024-01-15T22:29:59.480Z,96.26
2024-01-15T22:32:30.069Z,100.00
2024-01-15T22:34:59.347Z,100.00
2024-01-15T22:37:28.133Z,100.00
2024-01-15T22:39:55.559Z,100.00
2024-01-15T22:42:22.962Z,100.00
2024-01-15T22:44:50.513Z,98.58
2024-01-15T22:47:18.073Z,98.96
2024-01-15T22:49:45.506Z,99.78
2024-01-15T22:52:12.957Z,97.26
2024-01-15T22:54:41.661Z,97.58
2024-01-15T22:57:09.108Z,98.30
2024-01-15T22:59:37.144Z,100.00
2024-01-15T23:02:04.869Z,100.00
2024-01-15T23:04:32.386Z,100.00
2024-01-15T23:06:59.882Z,100.00
2024-01-15T23:09:27.383Z,100.00
2024-01-15T23:11:56.458Z,100.00
2024-01-15T23:14:24.018Z,99.20
2024-01-15T23:16:51.876Z,97.66
2024-01-15T23:19:19.329Z,96.27
2024-01-15T23:21:46.833Z,93.02
2024-01-15T23:24:14.251Z,89.23
2024-01-15T23:26:41.722Z,87.38
2024-01-15T23:29:10.536Z,86.30
2024-01-15T23:31:41.344Z,86.08
2024-01-15T23:34:09.713Z,84.23
2024-01-15T23:36:37.753Z,81.33
2024-01-15T23:39:08.804Z,81.87
2024-01-15T23:41:37.204Z,80.70
2024-01-15T23:44:05.206Z,81.90
2024-01-15T23:46:34.162Z,78.75
2024-01-15T23:49:01.616Z,79.20
2024-01-15T23:51:29.061Z,78.55
2024-01-15T23:53:56.475Z,79.10
2024-01-15T23:56:23.961Z,80.21
2024-01-15T23:58:51.718Z,85.85
